sensor_id;sensor_type;location;lat;lon;timestamp;pressure;altitude;pressure_sealevel;temperature;humidity
73453;BME280;61687;56.232;43.854;2022-08-18T00:00:43;101358.09;;;19.65;63.31
73453;BME280;61687;56.232;43.854;2022-08-18T00:03:10;101357.72;;;19.63;63.35
73453;BME280;61687;56.232;43.854;2022-08-18T00:05:36;101363.28;;;19.63;62.80
73453;BME280;61687;56.232;43.854;2022-08-18T00:08:03;101359.31;;;19.60;62.97
73453;BME280;61687;56.232;43.854;2022-08-18T00:10:30;101362.50;;;19.58;63.18
73453;BME280;61687;56.232;43.854;2022-08-18T00:12:57;101355.75;;;19.56;63.64
73453;BME280;61687;56.232;43.854;2022-08-18T00:15:23;101365.72;;;19.53;63.86
73453;BME280;61687;56.232;43.854;2022-08-18T00:17:49;101362.53;;;19.55;63.43
73453;BME280;61687;56.232;43.854;2022-08-18T00:20:21;101368.06;;;19.55;63.54
73453;BME280;61687;56.232;43.854;2022-08-18T00:22:47;101365.28;;;19.55;63.19
73453;BME280;61687;56.232;43.854;2022-08-18T00:25:17;101372.44;;;19.56;62.93
73453;BME280;61687;56.232;43.854;2022-08-18T00:27:43;101364.53;;;19.54;62.90
73453;BME280;61687;56.232;43.854;2022-08-18T00:30:15;101374.84;;;19.54;62.70
73453;BME280;61687;56.232;43.854;2022-08-18T00:32:47;101364.09;;;19.52;62.12
73453;BME280;61687;56.232;43.854;2022-08-18T00:35:18;101376.84;;;19.50;61.93
73453;BME280;61687;56.232;43.854;2022-08-18T00:37:46;101369.69;;;19.49;61.81
73453;BME280;61687;56.232;43.854;2022-08-18T00:40:17;101377.66;;;19.47;61.77
73453;BME280;61687;56.232;43.854;2022-08-18T00:42:53;101374.88;;;19.43;62.18
73453;BME280;61687;56.232;43.854;2022-08-18T00:45:23;101370.94;;;19.37;62.18
73453;BME280;61687;56.232;43.854;2022-08-18T00:47:50;101380.88;;;19.34;62.13
73453;BME280;61687;56.232;43.854;2022-08-18T00:50:31;101375.72;;;19.29;62.21
73453;BME280;61687;56.232;43.854;2022-08-18T00:53:06;101376.94;;;19.28;62.62
73453;BME280;61687;56.232;43.854;2022-08-18T00:55:34;101382.09;;;19.26;62.39
73453;BME280;61687;56.232;43.854;2022-08-18T00:58:21;101385.28;;;19.21;62.53
73453;BME280;61687;56.232;43.854;2022-08-18T01:00:50;101389.25;;;19.20;62.30
73453;BME280;61687;56.232;43.854;2022-08-18T01:03:19;101382.09;;;19.19;62.63
73453;BME280;61687;56.232;43.854;2022-08-18T01:05:51;101392.81;;;19.16;62.73
73453;BME280;61687;56.232;43.854;2022-08-18T01:08:19;101387.25;;;19.16;62.76
73453;BME280;61687;56.232;43.854;2022-08-18T01:10:46;101385.69;;;19.15;62.31
73453;BME280;61687;56.232;43.854;2022-08-18T01:13:12;101382.50;;;19.13;62.56
73453;BME280;61687;56.232;43.854;2022-08-18T01:15:38;101387.28;;;19.13;62.84
73453;BME280;61687;56.232;43.854;2022-08-18T01:18:09;101380.16;;;19.12;62.28
73453;BME280;61687;56.232;43.854;2022-08-18T01:23:49;101383.72;;;19.09;62.30
73453;BME280;61687;56.232;43.854;2022-08-18T01:26:17;101382.16;;;19.04;62.26
73453;BME280;61687;56.232;43.854;2022-08-18T01:28:45;101380.56;;;18.99;62.41
73453;BME280;61687;56.232;43.854;2022-08-18T01:33:57;101377.38;;;18.90;63.77
73453;BME280;61687;56.232;43.854;2022-08-18T01:36:24;101377.75;;;18.85;63.71
73453;BME280;61687;56.232;43.854;2022-08-18T01:38:51;101387.31;;;18.77;64.17
73453;BME280;61687;56.232;43.854;2022-08-18T01:41:20;101381.75;;;18.73;64.12
73453;BME280;61687;56.232;43.854;2022-08-18T01:43:48;101381.78;;;18.69;63.61
73453;BME280;61687;56.232;43.854;2022-08-18T01:46:19;101389.28;;;18.69;63.73
73453;BME280;61687;56.232;43.854;2022-08-18T01:48:46;101389.28;;;18.65;64.65
73453;BME280;61687;56.232;43.854;2022-08-18T01:51:14;101384.16;;;18.64;64.76
73453;BME280;61687;56.232;43.854;2022-08-18T01:53:40;101396.03;;;18.64;65.14
73453;BME280;61687;56.232;43.854;2022-08-18T01:56:07;101390.09;;;18.58;64.71
73453;BME280;61687;56.232;43.854;2022-08-18T01:58:35;101389.69;;;18.56;64.88
73453;BME280;61687;56.232;43.854;2022-08-18T02:01:02;101391.66;;;18.52;64.70
73453;BME280;61687;56.232;43.854;2022-08-18T02:03:33;101389.31;;;18.51;65.46
73453;BME280;61687;56.232;43.854;2022-08-18T02:06:02;101396.44;;;18.48;65.17
73453;BME280;61687;56.232;43.854;2022-08-18T02:08:28;101394.44;;;18.45;65.07
73453;BME280;61687;56.232;43.854;2022-08-18T02:10:55;101394.06;;;18.43;64.94
73453;BME280;61687;56.232;43.854;2022-08-18T02:13:24;101391.28;;;18.43;64.93
73453;BME280;61687;56.232;43.854;2022-08-18T02:15:50;101393.25;;;18.46;64.31
73453;BME280;61687;56.232;43.854;2022-08-18T02:18:18;101395.25;;;18.49;63.69
73453;BME280;61687;56.232;43.854;2022-08-18T02:20:45;101398.41;;;18.51;63.64
73453;BME280;61687;56.232;43.854;2022-08-18T02:23:13;101398.00;;;18.56;63.85
73453;BME280;61687;56.232;43.854;2022-08-18T02:25:41;101402.41;;;18.57;64.32
73453;BME280;61687;56.232;43.854;2022-08-18T02:28:08;101404.75;;;18.59;63.92
73453;BME280;61687;56.232;43.854;2022-08-18T02:30:34;101403.19;;;18.62;63.98
73453;BME280;61687;56.232;43.854;2022-08-18T02:33:08;101410.31;;;18.66;64.97
73453;BME280;61687;56.232;43.854;2022-08-18T02:35:35;101404.75;;;18.70;64.19
73453;BME280;61687;56.232;43.854;2022-08-18T02:38:06;101410.72;;;18.76;63.70
73453;BME280;61687;56.232;43.854;2022-08-18T02:40:35;101414.66;;;18.82;63.37
73453;BME280;61687;56.232;43.854;2022-08-18T02:43:07;101412.69;;;18.90;63.66
73453;BME280;61687;56.232;43.854;2022-08-18T02:45:36;101412.28;;;18.95;63.56
73453;BME280;61687;56.232;43.854;2022-08-18T02:48:02;101403.97;;;19.02;63.71
73453;BME280;61687;56.232;43.854;2022-08-18T02:50:28;101411.91;;;19.07;62.99
73453;BME280;61687;56.232;43.854;2022-08-18T02:52:54;101421.81;;;19.15;63.06
73453;BME280;61687;56.232;43.854;2022-08-18T02:55:20;101405.13;;;19.19;62.84
73453;BME280;61687;56.232;43.854;2022-08-18T02:57:47;101409.88;;;19.26;62.98
73453;BME280;61687;56.232;43.854;2022-08-18T03:00:17;101416.59;;;19.32;63.25
73453;BME280;61687;56.232;43.854;2022-08-18T03:02:48;101422.16;;;19.36;63.09
73453;BME280;61687;56.232;43.854;2022-08-18T03:05:16;101412.22;;;19.42;63.08
73453;BME280;61687;56.232;43.854;2022-08-18T03:07:43;101415.00;;;19.45;62.88
73453;BME280;61687;56.232;43.854;2022-08-18T03:10:10;101418.94;;;19.52;62.67
73453;BME280;61687;56.232;43.854;2022-08-18T03:12:36;101417.72;;;19.56;62.50
73453;BME280;61687;56.232;43.854;2022-08-18T03:15:03;101412.53;;;19.62;62.49
73453;BME280;61687;56.232;43.854;2022-08-18T03:17:30;101412.91;;;19.71;62.40
73453;BME280;61687;56.232;43.854;2022-08-18T03:20:00;101416.84;;;19.81;62.21
73453;BME280;61687;56.232;43.854;2022-08-18T03:22:26;101410.44;;;19.88;62.29
73453;BME280;61687;56.232;43.854;2022-08-18T03:24:52;101412.41;;;19.95;62.40
73453;BME280;61687;56.232;43.854;2022-08-18T03:27:17;101396.88;;;20.01;62.18
73453;BME280;61687;56.232;43.854;2022-08-18T03:29:43;101403.97;;;20.09;62.33
73453;BME280;61687;56.232;43.854;2022-08-18T03:32:09;101399.16;;;20.17;61.72
73453;BME280;61687;56.232;43.854;2022-08-18T03:34:35;101387.97;;;20.24;61.34
73453;BME280;61687;56.232;43.854;2022-08-18T03:37:01;101388.31;;;20.34;61.35
73453;BME280;61687;56.232;43.854;2022-08-18T03:39:27;101385.09;;;20.42;61.39
73453;BME280;61687;56.232;43.854;2022-08-18T03:41:54;101387.78;;;20.50;61.31
73453;BME280;61687;56.232;43.854;2022-08-18T03:44:21;101386.53;;;20.58;61.16
73453;BME280;61687;56.232;43.854;2022-08-18T03:46:49;101381.69;;;20.66;61.08
73453;BME280;61687;56.232;43.854;2022-08-18T03:49:15;101381.63;;;20.73;61.18
73453;BME280;61687;56.232;43.854;2022-08-18T03:51:44;101380.38;;;20.81;60.73
73453;BME280;61687;56.232;43.854;2022-08-18T03:54:15;101383.91;;;20.89;60.71
73453;BME280;61687;56.232;43.854;2022-08-18T03:56:43;101376.25;;;20.97;60.34
73453;BME280;61687;56.232;43.854;2022-08-18T03:59:15;101375.34;;;21.07;59.68
73453;BME280;61687;56.232;43.854;2022-08-18T04:01:43;101382.81;;;21.18;59.75
73453;BME280;61687;56.232;43.854;2022-08-18T04:04:12;101389.09;;;21.25;59.19
73453;BME280;61687;56.232;43.854;2022-08-18T04:06:45;101392.19;;;21.35;58.74
73453;BME280;61687;56.232;43.854;2022-08-18T04:09:15;101384.88;;;21.44;58.70
73453;BME280;61687;56.232;43.854;2022-08-18T04:11:42;101388.78;;;21.51;58.69
73453;BME280;61687;56.232;43.854;2022-08-18T04:14:14;101388.34;;;21.56;58.02
73453;BME280;61687;56.232;43.854;2022-08-18T04:16:41;101381.47;;;21.64;57.65
73453;BME280;61687;56.232;43.854;2022-08-18T04:19:08;101384.63;;;21.70;57.57
73453;BME280;61687;56.232;43.854;2022-08-18T04:21:36;101386.13;;;21.75;57.33
73453;BME280;61687;56.232;43.854;2022-08-18T04:24:05;101382.53;;;21.78;57.37
73453;BME280;61687;56.232;43.854;2022-08-18T04:26:38;101384.03;;;21.82;57.07
73453;BME280;61687;56.232;43.854;2022-08-18T04:29:07;101388.72;;;21.89;57.13
73453;BME280;61687;56.232;43.854;2022-08-18T04:31:34;101382.75;;;21.91;56.97
73453;BME280;61687;56.232;43.854;2022-08-18T04:34:01;101385.47;;;21.94;57.09
73453;BME280;61687;56.232;43.854;2022-08-18T04:36:30;101391.00;;;21.98;56.79
73453;BME280;61687;56.232;43.854;2022-08-18T04:38:57;101384.94;;;22.03;57.02
73453;BME280;61687;56.232;43.854;2022-08-18T04:41:24;101383.69;;;22.08;57.08
73453;BME280;61687;56.232;43.854;2022-08-18T04:44:04;101392.00;;;22.11;57.15
73453;BME280;61687;56.232;43.854;2022-08-18T04:46:38;101393.94;;;22.14;57.18
73453;BME280;61687;56.232;43.854;2022-08-18T04:49:05;101386.31;;;22.19;57.03
73453;BME280;61687;56.232;43.854;2022-08-18T04:51:32;101391.84;;;22.22;57.09
73453;BME280;61687;56.232;43.854;2022-08-18T04:53:58;101394.19;;;22.24;57.12
73453;BME280;61687;56.232;43.854;2022-08-18T04:56:28;101396.94;;;22.27;57.12
73453;BME280;61687;56.232;43.854;2022-08-18T04:58:58;101397.69;;;22.32;56.73
73453;BME280;61687;56.232;43.854;2022-08-18T05:01:30;101396.41;;;22.36;56.45
73453;BME280;61687;56.232;43.854;2022-08-18T05:03:57;101398.72;;;22.41;56.57
73453;BME280;61687;56.232;43.854;2022-08-18T05:06:25;101397.09;;;22.44;56.52
73453;BME280;61687;56.232;43.854;2022-08-18T05:08:57;101409.47;;;22.43;56.25
73453;BME280;61687;56.232;43.854;2022-08-18T05:11:26;101406.69;;;22.43;57.15
73453;BME280;61687;56.232;43.854;2022-08-18T05:14:00;101411.81;;;22.48;57.35
73453;BME280;61687;56.232;43.854;2022-08-18T05:16:27;101406.19;;;22.52;57.67
73453;BME280;61687;56.232;43.854;2022-08-18T05:18:57;101410.84;;;22.58;56.76
73453;BME280;61687;56.232;43.854;2022-08-18T05:21:24;101401.63;;;22.62;56.83
73453;BME280;61687;56.232;43.854;2022-08-18T05:23:50;101408.31;;;22.68;56.38
73453;BME280;61687;56.232;43.854;2022-08-18T05:26:17;101406.22;;;22.72;56.43
73453;BME280;61687;56.232;43.854;2022-08-18T05:28:45;101412.13;;;22.78;56.37
73453;BME280;61687;56.232;43.854;2022-08-18T05:31:17;101414.84;;;22.81;56.31
73453;BME280;61687;56.232;43.854;2022-08-18T05:33:44;101408.78;;;22.86;55.90
73453;BME280;61687;56.232;43.854;2022-08-18T05:36:57;101411.03;;;22.95;55.80
73453;BME280;61687;56.232;43.854;2022-08-18T05:41:50;101405.94;;;23.10;55.79
73453;BME280;61687;56.232;43.854;2022-08-18T05:44:22;101405.44;;;23.15;55.40
73453;BME280;61687;56.232;43.854;2022-08-18T05:46:55;101402.94;;;23.21;55.54
73453;BME280;61687;56.232;43.854;2022-08-18T05:49:25;101404.41;;;23.29;55.21
73453;BME280;61687;56.232;43.854;2022-08-18T05:51:59;101401.50;;;23.37;54.82
73453;BME280;61687;56.232;43.854;2022-08-18T05:54:33;101404.13;;;23.44;54.88
73453;BME280;61687;56.232;43.854;2022-08-18T05:57:21;101411.16;;;23.52;54.30
73453;BME280;61687;56.232;43.854;2022-08-18T05:59:51;101403.91;;;23.55;54.02
73453;BME280;61687;56.232;43.854;2022-08-18T06:04:53;101408.84;;;23.67;54.28
73453;BME280;61687;56.232;43.854;2022-08-18T06:07:34;101413.13;;;23.72;54.24
73453;BME280;61687;56.232;43.854;2022-08-18T06:10:02;101404.59;;;23.79;53.56
73453;BME280;61687;56.232;43.854;2022-08-18T06:12:34;101412.03;;;23.86;53.71
73453;BME280;61687;56.232;43.854;2022-08-18T06:15:16;101401.56;;;23.90;53.40
73453;BME280;61687;56.232;43.854;2022-08-18T06:20:33;101403.31;;;24.00;53.19
73453;BME280;61687;56.232;43.854;2022-08-18T06:29:07;101409.69;;;24.21;52.41
73453;BME280;61687;56.232;43.854;2022-08-18T06:32:13;101411.88;;;24.30;52.26
73453;BME280;61687;56.232;43.854;2022-08-18T06:34:37;101400.75;;;24.43;51.40
73453;BME280;61687;56.232;43.854;2022-08-18T06:37:17;101404.59;;;24.49;51.11
73453;BME280;61687;56.232;43.854;2022-08-18T06:39:50;101397.69;;;24.54;50.98
73453;BME280;61687;56.232;43.854;2022-08-18T06:42:23;101409.94;;;24.60;51.19
73453;BME280;61687;56.232;43.854;2022-08-18T06:45:07;101406.28;;;24.63;50.69
73453;BME280;61687;56.232;43.854;2022-08-18T06:47:48;101413.00;;;24.66;49.79
73453;BME280;61687;56.232;43.854;2022-08-18T06:52:56;101413.34;;;24.68;49.64
73453;BME280;61687;56.232;43.854;2022-08-18T06:55:41;101420.44;;;24.72;49.99
73453;BME280;61687;56.232;43.854;2022-08-18T07:03:40;101412.81;;;24.90;48.57
73453;BME280;61687;56.232;43.854;2022-08-18T07:06:09;101414.31;;;24.94;48.19
73453;BME280;61687;56.232;43.854;2022-08-18T07:08:41;101415.78;;;24.99;47.98
73453;BME280;61687;56.232;43.854;2022-08-18T07:11:23;101416.81;;;25.05;48.35
73453;BME280;61687;56.232;43.854;2022-08-18T07:13:54;101417.16;;;25.07;48.68
73453;BME280;61687;56.232;43.854;2022-08-18T07:16:30;101421.88;;;25.10;48.27
73453;BME280;61687;56.232;43.854;2022-08-18T07:19:11;101413.72;;;25.16;48.21
73453;BME280;61687;56.232;43.854;2022-08-18T07:21:38;101415.91;;;25.25;47.40
73453;BME280;61687;56.232;43.854;2022-08-18T07:27:02;101418.81;;;25.34;47.38
73453;BME280;61687;56.232;43.854;2022-08-18T07:29:32;101421.63;;;25.34;46.26
73453;BME280;61687;56.232;43.854;2022-08-18T07:32:02;101426.00;;;25.35;46.17
73453;BME280;61687;56.232;43.854;2022-08-18T07:34:36;101416.72;;;25.38;45.50
73453;BME280;61687;56.232;43.854;2022-08-18T07:37:25;101421.13;;;25.39;45.10
73453;BME280;61687;56.232;43.854;2022-08-18T07:39:58;101429.88;;;25.41;45.43
73453;BME280;61687;56.232;43.854;2022-08-18T07:43:33;101421.72;;;25.47;44.17
73453;BME280;61687;56.232;43.854;2022-08-18T07:45:39;101413.34;;;25.60;43.81
73453;BME280;61687;56.232;43.854;2022-08-18T07:48:14;101424.34;;;25.67;44.50
73453;BME280;61687;56.232;43.854;2022-08-18T07:59:11;101416.94;;;25.99;41.79
73453;BME280;61687;56.232;43.854;2022-08-18T08:04:47;101423.63;;;26.19;40.54
73453;BME280;61687;56.232;43.854;2022-08-18T08:07:20;101431.03;;;26.25;40.12
73453;BME280;61687;56.232;43.854;2022-08-18T08:09:51;101432.28;;;26.24;38.48
73453;BME280;61687;56.232;43.854;2022-08-18T08:20:46;101440.72;;;26.24;36.79
73453;BME280;61687;56.232;43.854;2022-08-18T08:23:23;101437.75;;;26.28;36.57
73453;BME280;61687;56.232;43.854;2022-08-18T08:29:09;101448.44;;;26.46;36.54
73453;BME280;61687;56.232;43.854;2022-08-18T08:34:56;101449.88;;;26.51;36.17
73453;BME280;61687;56.232;43.854;2022-08-18T08:37:35;101453.16;;;26.49;35.90
73453;BME280;61687;56.232;43.854;2022-08-18T08:43:06;101449.13;;;26.37;36.02
73453;BME280;61687;56.232;43.854;2022-08-18T08:45:44;101453.50;;;26.38;36.29
73453;BME280;61687;56.232;43.854;2022-08-18T08:48:16;101450.38;;;26.36;36.47
73453;BME280;61687;56.232;43.854;2022-08-18T08:50:52;101453.84;;;26.40;36.49
73453;BME280;61687;56.232;43.854;2022-08-18T08:55:49;101459.31;;;26.70;35.99
73453;BME280;61687;56.232;43.854;2022-08-18T08:58:28;101454.81;;;26.85;36.61
73453;BME280;61687;56.232;43.854;2022-08-18T09:00:58;101457.78;;;27.04;36.66
73453;BME280;61687;56.232;43.854;2022-08-18T09:03:44;101458.63;;;27.14;36.55
73453;BME280;61687;56.232;43.854;2022-08-18T09:06:25;101453.16;;;27.10;35.81
73453;BME280;61687;56.232;43.854;2022-08-18T09:20:54;101466.22;;;27.04;35.69
73453;BME280;61687;56.232;43.854;2022-08-18T09:23:27;101469.38;;;27.06;35.55
73453;BME280;61687;56.232;43.854;2022-08-18T09:25:57;101474.75;;;27.13;35.46
73453;BME280;61687;56.232;43.854;2022-08-18T09:41:53;101481.59;;;27.70;34.72
73453;BME280;61687;56.232;43.854;2022-08-18T09:47:06;101478.06;;;27.79;34.75
73453;BME280;61687;56.232;43.854;2022-08-18T09:49:43;101478.66;;;27.74;34.73
73453;BME280;61687;56.232;43.854;2022-08-18T09:57:36;101486.31;;;27.73;33.69
73453;BME280;61687;56.232;43.854;2022-08-18T10:18:44;101467.31;;;28.68;33.46
73453;BME280;61687;56.232;43.854;2022-08-18T10:21:22;101476.72;;;28.65;33.77
73453;BME280;61687;56.232;43.854;2022-08-18T10:29:05;101482.69;;;28.67;34.40
73453;BME280;61687;56.232;43.854;2022-08-18T10:34:50;101478.69;;;29.43;32.75
73453;BME280;61687;56.232;43.854;2022-08-18T10:37:31;101479.44;;;29.53;32.85
73453;BME280;61687;56.232;43.854;2022-08-18T10:42:39;101480.56;;;29.46;33.18
73453;BME280;61687;56.232;43.854;2022-08-18T10:45:14;101471.59;;;29.38;32.87
73453;BME280;61687;56.232;43.854;2022-08-18T10:47:57;101469.09;;;29.31;33.48
73453;BME280;61687;56.232;43.854;2022-08-18T10:50:26;101474.44;;;29.20;33.08
73453;BME280;61687;56.232;43.854;2022-08-18T10:58:16;101474.09;;;29.18;32.12
73453;BME280;61687;56.232;43.854;2022-08-18T11:06:22;101464.84;;;29.73;31.25
73453;BME280;61687;56.232;43.854;2022-08-18T11:08:59;101458.94;;;30.05;31.50
73453;BME280;61687;56.232;43.854;2022-08-18T11:11:35;101454.25;;;29.92;31.36
73453;BME280;61687;56.232;43.854;2022-08-18T11:19:11;101450.91;;;29.32;31.81
73453;BME280;61687;56.232;43.854;2022-08-18T11:21:44;101458.13;;;29.24;31.37
73453;BME280;61687;56.232;43.854;2022-08-18T11:26:49;101450.44;;;29.34;31.50
73453;BME280;61687;56.232;43.854;2022-08-18T11:29:21;101457.66;;;29.35;32.11
73453;BME280;61687;56.232;43.854;2022-08-18T11:31:57;101446.81;;;29.33;31.89
73453;BME280;61687;56.232;43.854;2022-08-18T11:34:40;101445.09;;;29.26;32.16
73453;BME280;61687;56.232;43.854;2022-08-18T11:37:55;101444.66;;;29.19;31.52
73453;BME280;61687;56.232;43.854;2022-08-18T11:39:59;101450.91;;;29.13;31.71
73453;BME280;61687;56.232;43.854;2022-08-18T11:42:36;101443.38;;;29.10;31.46
73453;BME280;61687;56.232;43.854;2022-08-18T11:45:06;101448.53;;;29.49;30.88
73453;BME280;61687;56.232;43.854;2022-08-18T11:48:20;101451.22;;;30.15;29.98
73453;BME280;61687;56.232;43.854;2022-08-18T11:50:59;101459.94;;;30.84;29.91
73453;BME280;61687;56.232;43.854;2022-08-18T11:56:20;101451.94;;;31.37;28.90
73453;BME280;61687;56.232;43.854;2022-08-18T11:58:57;101457.31;;;31.20;29.13
73453;BME280;61687;56.232;43.854;2022-08-18T12:06:36;101464.84;;;30.50;29.70
73453;BME280;61687;56.232;43.854;2022-08-18T12:09:25;101450.03;;;30.31;29.52
73453;BME280;61687;56.232;43.854;2022-08-18T12:11:57;101445.66;;;30.20;30.91
73453;BME280;61687;56.232;43.854;2022-08-18T12:14:28;101452.34;;;30.08;30.48
73453;BME280;61687;56.232;43.854;2022-08-18T12:16:54;101449.38;;;30.02;31.35
73453;BME280;61687;56.232;43.854;2022-08-18T12:19:22;101440.41;;;29.94;32.64
73453;BME280;61687;56.232;43.854;2022-08-18T12:21:55;101448.94;;;29.85;31.61
73453;BME280;61687;56.232;43.854;2022-08-18T12:24:24;101448.78;;;29.79;31.45
73453;BME280;61687;56.232;43.854;2022-08-18T12:26:51;101454.00;;;29.72;31.85
73453;BME280;61687;56.232;43.854;2022-08-18T12:29:17;101450.56;;;29.67;31.66
73453;BME280;61687;56.232;43.854;2022-08-18T12:31:45;101442.53;;;29.66;32.57
73453;BME280;61687;56.232;43.854;2022-08-18T12:34:11;101439.88;;;29.72;32.29
73453;BME280;61687;56.232;43.854;2022-08-18T12:36:38;101443.94;;;29.70;32.62
73453;BME280;61687;56.232;43.854;2022-08-18T12:39:05;101433.53;;;29.86;31.94
73453;BME280;61687;56.232;43.854;2022-08-18T12:41:31;101444.47;;;30.03;31.40
73453;BME280;61687;56.232;43.854;2022-08-18T12:43:57;101441.31;;;30.10;32.07
73453;BME280;61687;56.232;43.854;2022-08-18T12:46:23;101439.31;;;30.35;31.89
73453;BME280;61687;56.232;43.854;2022-08-18T12:48:49;101435.47;;;30.47;32.57
73453;BME280;61687;56.232;43.854;2022-08-18T12:51:15;101435.97;;;30.70;31.40
73453;BME280;61687;56.232;43.854;2022-08-18T12:53:41;101434.75;;;31.70;29.79
73453;BME280;61687;56.232;43.854;2022-08-18T12:56:23;101429.53;;;33.18;27.42
73453;BME280;61687;56.232;43.854;2022-08-18T12:58:50;101444.84;;;34.66;25.14
73453;BME280;61687;56.232;43.854;2022-08-18T13:01:19;101452.28;;;36.15;24.22
73453;BME280;61687;56.232;43.854;2022-08-18T13:03:46;101448.50;;;37.19;23.20
73453;BME280;61687;56.232;43.854;2022-08-18T13:06:13;101439.22;;;38.05;22.52
73453;BME280;61687;56.232;43.854;2022-08-18T13:08:39;101445.53;;;38.22;22.09
73453;BME280;61687;56.232;43.854;2022-08-18T13:11:05;101438.03;;;38.19;22.06
73453;BME280;61687;56.232;43.854;2022-08-18T13:13:37;101435.84;;;38.50;22.06
73453;BME280;61687;56.232;43.854;2022-08-18T13:16:05;101435.81;;;38.95;21.44
73453;BME280;61687;56.232;43.854;2022-08-18T13:18:33;101448.31;;;39.62;21.55
73453;BME280;61687;56.232;43.854;2022-08-18T13:21:00;101446.06;;;40.28;20.38
73453;BME280;61687;56.232;43.854;2022-08-18T13:23:28;101448.22;;;40.76;20.13
73453;BME280;61687;56.232;43.854;2022-08-18T13:25:55;101450.13;;;40.95;20.06
73453;BME280;61687;56.232;43.854;2022-08-18T13:28:23;101445.53;;;41.13;19.03
73453;BME280;61687;56.232;43.854;2022-08-18T13:30:48;101455.25;;;41.23;19.12
73453;BME280;61687;56.232;43.854;2022-08-18T13:33:16;101449.38;;;41.50;18.72
73453;BME280;61687;56.232;43.854;2022-08-18T13:35:43;101441.44;;;41.93;18.10
73453;BME280;61687;56.232;43.854;2022-08-18T13:38:14;101441.84;;;41.97;18.32
73453;BME280;61687;56.232;43.854;2022-08-18T13:40:43;101448.28;;;41.82;18.92
73453;BME280;61687;56.232;43.854;2022-08-18T13:43:10;101446.69;;;41.52;19.05
73453;BME280;61687;56.232;43.854;2022-08-18T13:45:36;101453.31;;;41.04;18.59
73453;BME280;61687;56.232;43.854;2022-08-18T13:48:04;101447.91;;;40.66;19.10
73453;BME280;61687;56.232;43.854;2022-08-18T13:50:30;101443.94;;;41.04;19.71
73453;BME280;61687;56.232;43.854;2022-08-18T13:52:56;101444.31;;;41.22;19.25
73453;BME280;61687;56.232;43.854;2022-08-18T13:55:25;101439.88;;;41.42;18.87
73453;BME280;61687;56.232;43.854;2022-08-18T13:57:53;101442.81;;;41.49;18.97
73453;BME280;61687;56.232;43.854;2022-08-18T14:00:22;101447.53;;;41.82;18.85
73453;BME280;61687;56.232;43.854;2022-08-18T14:02:49;101443.47;;;42.06;18.75
73453;BME280;61687;56.232;43.854;2022-08-18T14:05:21;101444.84;;;42.13;19.17
73453;BME280;61687;56.232;43.854;2022-08-18T14:07:47;101441.09;;;41.97;18.11
73453;BME280;61687;56.232;43.854;2022-08-18T14:10:14;101432.03;;;41.63;18.73
73453;BME280;61687;56.232;43.854;2022-08-18T14:12:41;101441.72;;;41.31;18.79
73453;BME280;61687;56.232;43.854;2022-08-18T14:15:11;101430.84;;;41.38;18.68
73453;BME280;61687;56.232;43.854;2022-08-18T14:17:38;101430.91;;;41.24;19.03
73453;BME280;61687;56.232;43.854;2022-08-18T14:20:04;101435.00;;;40.94;19.12
73453;BME280;61687;56.232;43.854;2022-08-18T14:22:54;101434.53;;;39.74;20.56
73453;BME280;61687;56.232;43.854;2022-08-18T14:25:40;101434.41;;;37.88;22.03
73453;BME280;61687;56.232;43.854;2022-08-18T14:28:24;101440.06;;;36.26;24.44
73453;BME280;61687;56.232;43.854;2022-08-18T14:30:51;101433.66;;;35.29;25.19
73453;BME280;61687;56.232;43.854;2022-08-18T14:33:19;101436.19;;;34.43;25.93
73453;BME280;61687;56.232;43.854;2022-08-18T14:35:46;101449.91;;;33.69;27.21
73453;BME280;61687;56.232;43.854;2022-08-18T14:38:13;101444.63;;;33.03;27.93
73453;BME280;61687;56.232;43.854;2022-08-18T14:40:42;101457.91;;;32.50;28.28
73453;BME280;61687;56.232;43.854;2022-08-18T14:43:11;101457.19;;;32.04;29.33
73453;BME280;61687;56.232;43.854;2022-08-18T14:45:38;101459.78;;;31.57;29.66
73453;BME280;61687;56.232;43.854;2022-08-18T14:48:05;101465.78;;;31.20;30.08
73453;BME280;61687;56.232;43.854;2022-08-18T14:50:32;101461.78;;;30.87;30.83
73453;BME280;61687;56.232;43.854;2022-08-18T14:52:58;101476.38;;;30.70;31.02
73453;BME280;61687;56.232;43.854;2022-08-18T14:55:23;101470.25;;;30.38;31.87
73453;BME280;61687;56.232;43.854;2022-08-18T14:57:49;101471.16;;;30.11;32.15
73453;BME280;61687;56.232;43.854;2022-08-18T15:00:17;101464.47;;;29.80;32.46
73453;BME280;61687;56.232;43.854;2022-08-18T15:02:45;101461.56;;;29.56;32.55
73453;BME280;61687;56.232;43.854;2022-08-18T15:05:13;101468.78;;;29.29;32.32
73453;BME280;61687;56.232;43.854;2022-08-18T15:07:39;101470.97;;;29.06;33.23
73453;BME280;61687;56.232;43.854;2022-08-18T15:10:08;101476.16;;;28.89;33.69
73453;BME280;61687;56.232;43.854;2022-08-18T15:12:36;101470.28;;;28.74;34.00
73453;BME280;61687;56.232;43.854;2022-08-18T15:15:07;101468.09;;;28.60;34.67
73453;BME280;61687;56.232;43.854;2022-08-18T15:17:35;101463.34;;;28.47;34.62
73453;BME280;61687;56.232;43.854;2022-08-18T15:20:08;101469.41;;;28.27;34.87
73453;BME280;61687;56.232;43.854;2022-08-18T15:22:43;101470.06;;;28.09;35.46
73453;BME280;61687;56.232;43.854;2022-08-18T15:25:28;101461.50;;;27.90;35.93
73453;BME280;61687;56.232;43.854;2022-08-18T15:28:22;101471.78;;;27.75;36.03
73453;BME280;61687;56.232;43.854;2022-08-18T15:30:50;101477.00;;;27.63;36.22